sensor_id;sensor_type;location;lat;lon;timestamp;temperature;humidity
17483;DHT22;8858;52.308;20.994;2024-02-26T00:00:22;8.60;99.90
17483;DHT22;8858;52.308;20.994;2024-02-26T00:02:50;8.60;99.90
17483;DHT22;8858;52.308;20.994;2024-02-26T00:05:20;8.60;99.90
17483;DHT22;8858;52.308;20.994;2024-02-26T00:07:48;8.60;99.90
17483;DHT22;8858;52.308;20.994;2024-02-26T00:10:16;8.50;99.90
17483;DHT22;8858;52.308;20.994;2024-02-26T00:12:48;8.50;99.90
17483;DHT22;8858;52.308;20.994;2024-02-26T00:15:16;8.40;99.90
17483;DHT22;8858;52.308;20.994;2024-02-26T00:17:47;8.40;99.90
17483;DHT22;8858;52.308;20.994;2024-02-26T00:20:15;8.30;99.90
17483;DHT22;8858;52.308;20.994;2024-02-26T00:22:43;8.30;99.90
17483;DHT22;8858;52.308;20.994;2024-02-26T00:25:14;8.30;99.90
17483;DHT22;8858;52.308;20.994;2024-02-26T00:27:43;8.20;99.90
17483;DHT22;8858;52.308;20.994;2024-02-26T00:30:12;8.20;99.90
17483;DHT22;8858;52.308;20.994;2024-02-26T00:32:43;8.10;99.90
17483;DHT22;8858;52.308;20.994;2024-02-26T00:35:13;8.10;99.90
17483;DHT22;8858;52.308;20.994;2024-02-26T00:37:49;8.10;99.90
17483;DHT22;8858;52.308;20.994;2024-02-26T00:40:18;8.00;99.90
17483;DHT22;8858;52.308;20.994;2024-02-26T00:42:50;8.00;99.90
17483;DHT22;8858;52.308;20.994;2024-02-26T00:45:19;7.90;99.90
17483;DHT22;8858;52.308;20.994;2024-02-26T00:47:49;7.90;99.90
17483;DHT22;8858;52.308;20.994;2024-02-26T00:50:18;7.90;99.90
17483;DHT22;8858;52.308;20.994;2024-02-26T00:52:47;7.90;99.90
17483;DHT22;8858;52.308;20.994;2024-02-26T00:55:16;7.90;99.90
17483;DHT22;8858;52.308;20.994;2024-02-26T00:57:44;7.80;99.90
17483;DHT22;8858;52.308;20.994;2024-02-26T01:00:14;7.80;99.90
17483;DHT22;8858;52.308;20.994;2024-02-26T01:02:46;7.80;99.90
17483;DHT22;8858;52.308;20.994;2024-02-26T01:05:14;7.90;99.90
17483;DHT22;8858;52.308;20.994;2024-02-26T01:07:44;7.80;99.90
17483;DHT22;8858;52.308;20.994;2024-02-26T01:10:13;7.80;99.90
17483;DHT22;8858;52.308;20.994;2024-02-26T01:12:42;7.90;99.90
17483;DHT22;8858;52.308;20.994;2024-02-26T01:15:35;7.90;99.90
17483;DHT22;8858;52.308;20.994;2024-02-26T01:18:04;7.80;99.90
17483;DHT22;8858;52.308;20.994;2024-02-26T01:20:32;7.90;99.90
17483;DHT22;8858;52.308;20.994;2024-02-26T01:23:02;7.90;99.90
17483;DHT22;8858;52.308;20.994;2024-02-26T01:25:31;7.90;99.90
17483;DHT22;8858;52.308;20.994;2024-02-26T01:28:00;7.90;99.90
17483;DHT22;8858;52.308;20.994;2024-02-26T01:30:31;7.90;99.90
17483;DHT22;8858;52.308;20.994;2024-02-26T01:33:00;7.90;99.90
17483;DHT22;8858;52.308;20.994;2024-02-26T01:35:29;7.90;99.90
17483;DHT22;8858;52.308;20.994;2024-02-26T01:37:58;8.00;99.90
17483;DHT22;8858;52.308;20.994;2024-02-26T01:40:28;8.00;99.90
17483;DHT22;8858;52.308;20.994;2024-02-26T01:43:00;8.00;99.90
17483;DHT22;8858;52.308;20.994;2024-02-26T01:45:28;8.00;99.90
17483;DHT22;8858;52.308;20.994;2024-02-26T01:47:57;8.00;99.90
17483;DHT22;8858;52.308;20.994;2024-02-26T01:50:27;8.00;99.90
17483;DHT22;8858;52.308;20.994;2024-02-26T01:52:57;8.00;99.90
17483;DHT22;8858;52.308;20.994;2024-02-26T01:55:29;8.00;99.90
17483;DHT22;8858;52.308;20.994;2024-02-26T01:57:58;8.00;99.90
17483;DHT22;8858;52.308;20.994;2024-02-26T02:00:27;7.90;99.90
17483;DHT22;8858;52.308;20.994;2024-02-26T02:02:57;7.90;99.90
17483;DHT22;8858;52.308;20.994;2024-02-26T02:05:26;7.90;99.90
17483;DHT22;8858;52.308;20.994;2024-02-26T02:07:56;7.80;99.90
17483;DHT22;8858;52.308;20.994;2024-02-26T02:10:26;7.80;99.90
17483;DHT22;8858;52.308;20.994;2024-02-26T02:12:57;7.80;99.90
17483;DHT22;8858;52.308;20.994;2024-02-26T02:15:25;7.80;99.90
17483;DHT22;8858;52.308;20.994;2024-02-26T02:17:53;7.80;99.90
17483;DHT22;8858;52.308;20.994;2024-02-26T02:20:26;7.70;99.90
17483;DHT22;8858;52.308;20.994;2024-02-26T02:22:59;7.70;99.90
17483;DHT22;8858;52.308;20.994;2024-02-26T02:25:28;7.70;99.90
17483;DHT22;8858;52.308;20.994;2024-02-26T02:27:57;7.60;99.90
17483;DHT22;8858;52.308;20.994;2024-02-26T02:30:28;7.60;99.90
17483;DHT22;8858;52.308;20.994;2024-02-26T02:32:59;7.60;99.90
17483;DHT22;8858;52.308;20.994;2024-02-26T02:35:29;7.50;99.90
17483;DHT22;8858;52.308;20.994;2024-02-26T02:37:59;7.40;99.90
17483;DHT22;8858;52.308;20.994;2024-02-26T02:40:27;7.40;99.90
17483;DHT22;8858;52.308;20.994;2024-02-26T02:42:56;7.30;99.90
17483;DHT22;8858;52.308;20.994;2024-02-26T02:45:27;7.30;99.90
17483;DHT22;8858;52.308;20.994;2024-02-26T02:47:56;7.30;99.90
17483;DHT22;8858;52.308;20.994;2024-02-26T02:50:27;7.20;99.90
17483;DHT22;8858;52.308;20.994;2024-02-26T02:52:57;7.20;99.90
17483;DHT22;8858;52.308;20.994;2024-02-26T02:55:25;7.20;99.90
17483;DHT22;8858;52.308;20.994;2024-02-26T02:57:55;7.20;99.90
17483;DHT22;8858;52.308;20.994;2024-02-26T03:00:23;7.10;99.90
17483;DHT22;8858;52.308;20.994;2024-02-26T03:02:54;7.10;99.90
17483;DHT22;8858;52.308;20.994;2024-02-26T03:05:23;7.10;99.90
17483;DHT22;8858;52.308;20.994;2024-02-26T03:07:53;7.00;99.90
17483;DHT22;8858;52.308;20.994;2024-02-26T03:10:23;7.00;99.90
17483;DHT22;8858;52.308;20.994;2024-02-26T03:12:52;7.00;99.90
17483;DHT22;8858;52.308;20.994;2024-02-26T03:15:22;7.00;99.90
17483;DHT22;8858;52.308;20.994;2024-02-26T03:17:51;6.90;99.90
17483;DHT22;8858;52.308;20.994;2024-02-26T03:20:20;6.90;99.90
17483;DHT22;8858;52.308;20.994;2024-02-26T03:22:49;6.80;99.90
17483;DHT22;8858;52.308;20.994;2024-02-26T03:25:18;6.80;99.90
17483;DHT22;8858;52.308;20.994;2024-02-26T03:27:48;6.80;99.90
17483;DHT22;8858;52.308;20.994;2024-02-26T03:30:18;6.90;99.90
17483;DHT22;8858;52.308;20.994;2024-02-26T03:32:46;6.90;99.90
17483;DHT22;8858;52.308;20.994;2024-02-26T03:35:18;6.90;99.90
17483;DHT22;8858;52.308;20.994;2024-02-26T03:37:47;6.80;99.90
17483;DHT22;8858;52.308;20.994;2024-02-26T03:40:18;6.90;99.90
17483;DHT22;8858;52.308;20.994;2024-02-26T03:42:48;6.80;99.90
17483;DHT22;8858;52.308;20.994;2024-02-26T03:45:16;6.90;99.90
17483;DHT22;8858;52.308;20.994;2024-02-26T03:47:45;6.80;99.90
17483;DHT22;8858;52.308;20.994;2024-02-26T03:50:14;6.80;99.90
17483;DHT22;8858;52.308;20.994;2024-02-26T03:52:42;6.90;99.90
17483;DHT22;8858;52.308;20.994;2024-02-26T03:55:10;6.80;99.90
17483;DHT22;8858;52.308;20.994;2024-02-26T03:57:41;6.80;99.90
17483;DHT22;8858;52.308;20.994;2024-02-26T04:00:16;6.80;99.90
17483;DHT22;8858;52.308;20.994;2024-02-26T04:02:50;6.90;99.90
17483;DHT22;8858;52.308;20.994;2024-02-26T04:05:24;6.90;99.90
17483;DHT22;8858;52.308;20.994;2024-02-26T04:07:54;6.90;99.90
17483;DHT22;8858;52.308;20.994;2024-02-26T04:10:25;6.90;99.90
17483;DHT22;8858;52.308;20.994;2024-02-26T04:12:55;6.90;99.90
17483;DHT22;8858;52.308;20.994;2024-02-26T04:15:27;6.90;99.90
17483;DHT22;8858;52.308;20.994;2024-02-26T04:17:55;6.80;99.90
17483;DHT22;8858;52.308;20.994;2024-02-26T04:20:24;6.90;99.90
17483;DHT22;8858;52.308;20.994;2024-02-26T04:22:53;6.80;99.90
17483;DHT22;8858;52.308;20.994;2024-02-26T04:25:22;6.80;99.90
17483;DHT22;8858;52.308;20.994;2024-02-26T04:27:51;6.90;99.90
17483;DHT22;8858;52.308;20.994;2024-02-26T04:30:20;6.90;99.90
17483;DHT22;8858;52.308;20.994;2024-02-26T04:32:50;6.90;99.90
17483;DHT22;8858;52.308;20.994;2024-02-26T04:35:20;6.90;99.90
17483;DHT22;8858;52.308;20.994;2024-02-26T04:37:49;7.00;99.90
17483;DHT22;8858;52.308;20.994;2024-02-26T04:40:17;7.00;99.90
17483;DHT22;8858;52.308;20.994;2024-02-26T04:42:47;7.00;99.90
17483;DHT22;8858;52.308;20.994;2024-02-26T04:45:15;7.00;99.90
17483;DHT22;8858;52.308;20.994;2024-02-26T04:47:46;7.10;99.90
17483;DHT22;8858;52.308;20.994;2024-02-26T04:50:17;7.10;99.90
17483;DHT22;8858;52.308;20.994;2024-02-26T04:52:45;7.10;99.90
17483;DHT22;8858;52.308;20.994;2024-02-26T04:55:17;7.00;99.90
17483;DHT22;8858;52.308;20.994;2024-02-26T04:57:45;7.10;99.90
17483;DHT22;8858;52.308;20.994;2024-02-26T05:00:17;7.00;99.90
17483;DHT22;8858;52.308;20.994;2024-02-26T05:02:45;7.00;99.90
17483;DHT22;8858;52.308;20.994;2024-02-26T05:05:14;7.00;99.90
17483;DHT22;8858;52.308;20.994;2024-02-26T05:07:43;6.90;99.90
17483;DHT22;8858;52.308;20.994;2024-02-26T05:10:13;6.90;99.90
17483;DHT22;8858;52.308;20.994;2024-02-26T05:12:45;6.90;99.90
17483;DHT22;8858;52.308;20.994;2024-02-26T05:15:14;6.80;99.90
17483;DHT22;8858;52.308;20.994;2024-02-26T05:17:46;6.90;99.90
17483;DHT22;8858;52.308;20.994;2024-02-26T05:20:15;6.90;99.90
17483;DHT22;8858;52.308;20.994;2024-02-26T05:22:45;6.90;99.90
17483;DHT22;8858;52.308;20.994;2024-02-26T05:25:17;6.90;99.90
17483;DHT22;8858;52.308;20.994;2024-02-26T05:27:46;6.80;99.90
17483;DHT22;8858;52.308;20.994;2024-02-26T05:30:14;6.90;99.90
17483;DHT22;8858;52.308;20.994;2024-02-26T05:32:43;6.80;99.90
17483;DHT22;8858;52.308;20.994;2024-02-26T05:35:12;6.90;99.90
17483;DHT22;8858;52.308;20.994;2024-02-26T05:37:42;6.90;99.90
17483;DHT22;8858;52.308;20.994;2024-02-26T05:40:13;6.90;99.90
17483;DHT22;8858;52.308;20.994;2024-02-26T05:42:41;6.90;99.90
17483;DHT22;8858;52.308;20.994;2024-02-26T05:45:12;6.90;99.90
17483;DHT22;8858;52.308;20.994;2024-02-26T05:47:40;7.00;99.90
17483;DHT22;8858;52.308;20.994;2024-02-26T05:50:10;7.00;99.90
17483;DHT22;8858;52.308;20.994;2024-02-26T05:52:40;7.00;99.90
17483;DHT22;8858;52.308;20.994;2024-02-26T05:55:09;7.10;99.90
17483;DHT22;8858;52.308;20.994;2024-02-26T05:57:38;7.10;99.90
17483;DHT22;8858;52.308;20.994;2024-02-26T06:00:08;7.20;99.90
17483;DHT22;8858;52.308;20.994;2024-02-26T06:02:41;7.20;99.90
17483;DHT22;8858;52.308;20.994;2024-02-26T06:05:10;7.20;99.90
17483;DHT22;8858;52.308;20.994;2024-02-26T06:07:38;7.30;99.90
17483;DHT22;8858;52.308;20.994;2024-02-26T06:10:07;7.40;99.90
17483;DHT22;8858;52.308;20.994;2024-02-26T06:12:36;7.30;99.90
17483;DHT22;8858;52.308;20.994;2024-02-26T06:15:06;7.30;99.90
17483;DHT22;8858;52.308;20.994;2024-02-26T06:17:36;7.40;99.90
17483;DHT22;8858;52.308;20.994;2024-02-26T06:20:05;7.40;99.90
17483;DHT22;8858;52.308;20.994;2024-02-26T06:22:40;7.40;99.90
17483;DHT22;8858;52.308;20.994;2024-02-26T06:25:12;7.40;99.90
17483;DHT22;8858;52.308;20.994;2024-02-26T06:27:41;7.40;99.90
17483;DHT22;8858;52.308;20.994;2024-02-26T06:30:11;7.40;99.90
17483;DHT22;8858;52.308;20.994;2024-02-26T06:32:40;7.50;99.90
17483;DHT22;8858;52.308;20.994;2024-02-26T06:35:09;7.50;99.90
17483;DHT22;8858;52.308;20.994;2024-02-26T06:37:38;7.50;99.90
17483;DHT22;8858;52.308;20.994;2024-02-26T06:40:11;7.60;99.90
17483;DHT22;8858;52.308;20.994;2024-02-26T06:42:39;7.60;99.90
17483;DHT22;8858;52.308;20.994;2024-02-26T06:45:08;7.60;99.90
17483;DHT22;8858;52.308;20.994;2024-02-26T06:47:37;7.70;99.90
17483;DHT22;8858;52.308;20.994;2024-02-26T06:50:08;7.70;99.90
17483;DHT22;8858;52.308;20.994;2024-02-26T06:52:36;7.70;99.90
17483;DHT22;8858;52.308;20.994;2024-02-26T06:55:05;7.80;99.90
17483;DHT22;8858;52.308;20.994;2024-02-26T06:57:37;7.80;99.90
17483;DHT22;8858;52.308;20.994;2024-02-26T07:00:06;7.90;99.90
17483;DHT22;8858;52.308;20.994;2024-02-26T07:02:35;7.90;99.90
17483;DHT22;8858;52.308;20.994;2024-02-26T07:05:08;8.00;99.90
17483;DHT22;8858;52.308;20.994;2024-02-26T07:07:36;8.10;99.90
17483;DHT22;8858;52.308;20.994;2024-02-26T07:10:10;8.20;99.90
17483;DHT22;8858;52.308;20.994;2024-02-26T07:12:39;8.30;99.90
17483;DHT22;8858;52.308;20.994;2024-02-26T07:15:08;8.30;99.90
17483;DHT22;8858;52.308;20.994;2024-02-26T07:17:37;8.30;99.90
17483;DHT22;8858;52.308;20.994;2024-02-26T07:20:11;8.40;99.90
17483;DHT22;8858;52.308;20.994;2024-02-26T07:22:39;8.40;99.90
17483;DHT22;8858;52.308;20.994;2024-02-26T07:25:09;8.50;99.90
17483;DHT22;8858;52.308;20.994;2024-02-26T07:27:40;8.60;99.90
17483;DHT22;8858;52.308;20.994;2024-02-26T07:30:10;8.60;99.90
17483;DHT22;8858;52.308;20.994;2024-02-26T07:32:39;8.70;99.90
17483;DHT22;8858;52.308;20.994;2024-02-26T07:35:09;8.80;99.90
17483;DHT22;8858;52.308;20.994;2024-02-26T07:37:38;8.90;99.90
17483;DHT22;8858;52.308;20.994;2024-02-26T07:40:07;9.00;99.90
17483;DHT22;8858;52.308;20.994;2024-02-26T07:42:36;9.10;99.90
17483;DHT22;8858;52.308;20.994;2024-02-26T07:45:05;9.20;99.90
17483;DHT22;8858;52.308;20.994;2024-02-26T07:47:34;9.30;99.90
17483;DHT22;8858;52.308;20.994;2024-02-26T07:50:02;9.40;99.90
17483;DHT22;8858;52.308;20.994;2024-02-26T07:52:32;9.50;99.90
17483;DHT22;8858;52.308;20.994;2024-02-26T07:55:02;9.50;99.90
17483;DHT22;8858;52.308;20.994;2024-02-26T07:57:37;9.60;99.90
17483;DHT22;8858;52.308;20.994;2024-02-26T08:00:06;9.70;99.90
17483;DHT22;8858;52.308;20.994;2024-02-26T08:02:36;9.70;99.90
17483;DHT22;8858;52.308;20.994;2024-02-26T08:05:05;9.80;99.90
17483;DHT22;8858;52.308;20.994;2024-02-26T08:07:35;9.90;99.90
17483;DHT22;8858;52.308;20.994;2024-02-26T08:10:04;10.00;99.90
17483;DHT22;8858;52.308;20.994;2024-02-26T08:12:32;10.00;99.90
17483;DHT22;8858;52.308;20.994;2024-02-26T08:15:00;10.10;99.90
17483;DHT22;8858;52.308;20.994;2024-02-26T08:17:31;10.20;99.90
17483;DHT22;8858;52.308;20.994;2024-02-26T08:20:01;10.40;99.90
17483;DHT22;8858;52.308;20.994;2024-02-26T08:22:29;10.40;99.90
17483;DHT22;8858;52.308;20.994;2024-02-26T08:25:00;10.60;99.90
17483;DHT22;8858;52.308;20.994;2024-02-26T08:27:32;10.60;99.90
17483;DHT22;8858;52.308;20.994;2024-02-26T08:30:02;10.70;99.90
17483;DHT22;8858;52.308;20.994;2024-02-26T08:32:30;10.70;99.90
17483;DHT22;8858;52.308;20.994;2024-02-26T08:34:59;10.80;99.90
17483;DHT22;8858;52.308;20.994;2024-02-26T08:37:27;10.80;99.90
17483;DHT22;8858;52.308;20.994;2024-02-26T08:39:56;10.80;99.90
17483;DHT22;8858;52.308;20.994;2024-02-26T08:42:35;10.90;99.90
17483;DHT22;8858;52.308;20.994;2024-02-26T08:45:06;11.00;99.90
17483;DHT22;8858;52.308;20.994;2024-02-26T08:47:44;11.00;99.90
17483;DHT22;8858;52.308;20.994;2024-02-26T08:50:14;11.10;99.90
17483;DHT22;8858;52.308;20.994;2024-02-26T08:52:43;11.10;99.90
17483;DHT22;8858;52.308;20.994;2024-02-26T08:55:17;11.20;99.90
17483;DHT22;8858;52.308;20.994;2024-02-26T08:57:47;11.20;99.90
17483;DHT22;8858;52.308;20.994;2024-02-26T09:00:16;11.30;99.90
17483;DHT22;8858;52.308;20.994;2024-02-26T09:02:47;11.30;99.90
17483;DHT22;8858;52.308;20.994;2024-02-26T09:05:17;11.40;99.90
17483;DHT22;8858;52.308;20.994;2024-02-26T09:07:45;11.40;99.90
17483;DHT22;8858;52.308;20.994;2024-02-26T09:10:14;11.50;99.90
17483;DHT22;8858;52.308;20.994;2024-02-26T09:12:42;11.50;99.90
17483;DHT22;8858;52.308;20.994;2024-02-26T09:15:13;11.60;99.90
17483;DHT22;8858;52.308;20.994;2024-02-26T09:17:45;11.60;99.90
17483;DHT22;8858;52.308;20.994;2024-02-26T09:20:18;11.70;99.90
17483;DHT22;8858;52.308;20.994;2024-02-26T09:22:47;11.70;99.90
17483;DHT22;8858;52.308;20.994;2024-02-26T09:25:15;11.80;99.90
17483;DHT22;8858;52.308;20.994;2024-02-26T09:27:48;11.80;99.90
17483;DHT22;8858;52.308;20.994;2024-02-26T09:30:20;11.90;99.90
17483;DHT22;8858;52.308;20.994;2024-02-26T09:32:48;11.90;99.90
17483;DHT22;8858;52.308;20.994;2024-02-26T09:35:17;12.00;99.90
17483;DHT22;8858;52.308;20.994;2024-02-26T09:37:46;12.00;99.90
17483;DHT22;8858;52.308;20.994;2024-02-26T09:40:16;12.00;99.90
17483;DHT22;8858;52.308;20.994;2024-02-26T09:42:45;12.10;99.90
17483;DHT22;8858;52.308;20.994;2024-02-26T09:45:18;12.10;99.90
17483;DHT22;8858;52.308;20.994;2024-02-26T09:47:50;12.20;99.90
17483;DHT22;8858;52.308;20.994;2024-02-26T09:50:20;12.30;99.90
17483;DHT22;8858;52.308;20.994;2024-02-26T09:52:51;12.40;99.90
17483;DHT22;8858;52.308;20.994;2024-02-26T09:55:20;12.50;99.90
17483;DHT22;8858;52.308;20.994;2024-02-26T09:57:48;12.50;99.90
17483;DHT22;8858;52.308;20.994;2024-02-26T10:00:23;12.60;99.90
17483;DHT22;8858;52.308;20.994;2024-02-26T10:02:56;12.60;99.90
17483;DHT22;8858;52.308;20.994;2024-02-26T10:05:27;12.70;99.90
17483;DHT22;8858;52.308;20.994;2024-02-26T10:07:56;12.70;99.90
17483;DHT22;8858;52.308;20.994;2024-02-26T10:10:28;12.70;99.90
17483;DHT22;8858;52.308;20.994;2024-02-26T10:12:59;12.80;99.90
17483;DHT22;8858;52.308;20.994;2024-02-26T10:15:28;12.80;99.90
17483;DHT22;8858;52.308;20.994;2024-02-26T10:17:58;12.80;99.90
17483;DHT22;8858;52.308;20.994;2024-02-26T10:20:26;12.90;99.90
17483;DHT22;8858;52.308;20.994;2024-02-26T10:22:55;12.90;99.90
17483;DHT22;8858;52.308;20.994;2024-02-26T10:25:23;12.90;99.90
17483;DHT22;8858;52.308;20.994;2024-02-26T10:27:52;12.80;99.90
17483;DHT22;8858;52.308;20.994;2024-02-26T10:30:21;12.90;99.90
17483;DHT22;8858;52.308;20.994;2024-02-26T10:32:50;12.90;99.90
17483;DHT22;8858;52.308;20.994;2024-02-26T10:35:20;12.90;99.90
17483;DHT22;8858;52.308;20.994;2024-02-26T10:37:50;12.90;99.90
17483;DHT22;8858;52.308;20.994;2024-02-26T10:40:18;13.00;99.90
17483;DHT22;8858;52.308;20.994;2024-02-26T10:42:47;12.90;99.90
17483;DHT22;8858;52.308;20.994;2024-02-26T10:45:16;12.90;99.90
17483;DHT22;8858;52.308;20.994;2024-02-26T10:47:46;12.90;99.90
17483;DHT22;8858;52.308;20.994;2024-02-26T10:50:15;12.90;99.90
17483;DHT22;8858;52.308;20.994;2024-02-26T10:52:46;12.90;99.90
17483;DHT22;8858;52.308;20.994;2024-02-26T10:55:20;12.90;99.90
17483;DHT22;8858;52.308;20.994;2024-02-26T10:57:52;12.90;99.90
17483;DHT22;8858;52.308;20.994;2024-02-26T11:00:23;12.90;99.90
17483;DHT22;8858;52.308;20.994;2024-02-26T11:02:54;12.90;99.90
17483;DHT22;8858;52.308;20.994;2024-02-26T11:05:23;12.90;99.90
17483;DHT22;8858;52.308;20.994;2024-02-26T11:07:54;13.00;99.90
17483;DHT22;8858;52.308;20.994;2024-02-26T11:10:25;12.90;99.90
17483;DHT22;8858;52.308;20.994;2024-02-26T11:12:54;12.90;99.90
17483;DHT22;8858;52.308;20.994;2024-02-26T11:15:24;13.00;99.90
17483;DHT22;8858;52.308;20.994;2024-02-26T11:17:53;13.00;99.90
17483;DHT22;8858;52.308;20.994;2024-02-26T11:20:24;13.00;99.90
17483;DHT22;8858;52.308;20.994;2024-02-26T11:22:55;13.00;99.90
17483;DHT22;8858;52.308;20.994;2024-02-26T11:25:27;13.00;99.90
17483;DHT22;8858;52.308;20.994;2024-02-26T11:27:58;13.10;99.90
17483;DHT22;8858;52.308;20.994;2024-02-26T11:30:31;13.10;99.90
17483;DHT22;8858;52.308;20.994;2024-02-26T11:33:01;13.10;99.90
17483;DHT22;8858;52.308;20.994;2024-02-26T11:35:30;13.20;99.90
17483;DHT22;8858;52.308;20.994;2024-02-26T11:38:00;13.20;99.90
17483;DHT22;8858;52.308;20.994;2024-02-26T11:40:32;13.30;99.90
17483;DHT22;8858;52.308;20.994;2024-02-26T11:43:04;13.40;99.90
17483;DHT22;8858;52.308;20.994;2024-02-26T11:45:49;13.40;99.90
17483;DHT22;8858;52.308;20.994;2024-02-26T11:48:21;13.50;99.90
17483;DHT22;8858;52.308;20.994;2024-02-26T11:50:51;13.50;99.90
17483;DHT22;8858;52.308;20.994;2024-02-26T11:53:25;13.60;99.90
17483;DHT22;8858;52.308;20.994;2024-02-26T11:56:20;13.70;99.90
17483;DHT22;8858;52.308;20.994;2024-02-26T11:58:57;13.80;99.90
17483;DHT22;8858;52.308;20.994;2024-02-26T12:01:45;13.90;99.90
17483;DHT22;8858;52.308;20.994;2024-02-26T12:04:19;14.00;99.90
17483;DHT22;8858;52.308;20.994;2024-02-26T12:06:51;14.10;99.90
17483;DHT22;8858;52.308;20.994;2024-02-26T12:09:38;14.20;99.90
17483;DHT22;8858;52.308;20.994;2024-02-26T12:12:09;14.40;99.90
17483;DHT22;8858;52.308;20.994;2024-02-26T12:14:39;14.50;99.90
17483;DHT22;8858;52.308;20.994;2024-02-26T12:17:20;14.60;99.90
17483;DHT22;8858;52.308;20.994;2024-02-26T12:19:48;14.70;99.90
17483;DHT22;8858;52.308;20.994;2024-02-26T12:22:18;14.90;99.90
17483;DHT22;8858;52.308;20.994;2024-02-26T12:24:48;15.00;99.90
17483;DHT22;8858;52.308;20.994;2024-02-26T12:27:25;15.10;99.90
17483;DHT22;8858;52.308;20.994;2024-02-26T12:29:54;15.30;99.90
17483;DHT22;8858;52.308;20.994;2024-02-26T12:32:23;15.40;99.90
17483;DHT22;8858;52.308;20.994;2024-02-26T12:34:52;15.40;99.90
17483;DHT22;8858;52.308;20.994;2024-02-26T12:37:20;15.60;99.90
17483;DHT22;8858;52.308;20.994;2024-02-26T12:39:50;15.70;99.90
17483;DHT22;8858;52.308;20.994;2024-02-26T12:42:18;15.80;99.90
17483;DHT22;8858;52.308;20.994;2024-02-26T12:44:47;15.90;99.90
17483;DHT22;8858;52.308;20.994;2024-02-26T12:47:16;16.00;99.90
17483;DHT22;8858;52.308;20.994;2024-02-26T12:49:48;16.10;99.90
17483;DHT22;8858;52.308;20.994;2024-02-26T12:52:17;16.20;99.90
17483;DHT22;8858;52.308;20.994;2024-02-26T12:54:49;16.30;99.90
17483;DHT22;8858;52.308;20.994;2024-02-26T12:57:18;16.40;99.90
17483;DHT22;8858;52.308;20.994;2024-02-26T12:59:46;16.50;99.90
17483;DHT22;8858;52.308;20.994;2024-02-26T13:02:18;16.60;99.90
17483;DHT22;8858;52.308;20.994;2024-02-26T13:04:47;16.60;99.90
17483;DHT22;8858;52.308;20.994;2024-02-26T13:07:16;16.70;99.90
17483;DHT22;8858;52.308;20.994;2024-02-26T13:09:44;16.70;99.90
17483;DHT22;8858;52.308;20.994;2024-02-26T13:12:16;16.80;99.90
17483;DHT22;8858;52.308;20.994;2024-02-26T13:14:48;16.80;99.90
17483;DHT22;8858;52.308;20.994;2024-02-26T13:17:31;16.80;99.90
17483;DHT22;8858;52.308;20.994;2024-02-26T13:20:00;16.90;99.90
17483;DHT22;8858;52.308;20.994;2024-02-26T13:22:28;16.90;99.90
17483;DHT22;8858;52.308;20.994;2024-02-26T13:25:03;16.90;99.90
17483;DHT22;8858;52.308;20.994;2024-02-26T13:27:36;16.90;99.90
17483;DHT22;8858;52.308;20.994;2024-02-26T13:30:06;17.00;99.90
17483;DHT22;8858;52.308;20.994;2024-02-26T13:32:37;17.00;99.90
17483;DHT22;8858;52.308;20.994;2024-02-26T13:35:08;17.10;99.90
17483;DHT22;8858;52.308;20.994;2024-02-26T13:37:37;17.10;99.90
17483;DHT22;8858;52.308;20.994;2024-02-26T13:40:06;17.10;99.90
17483;DHT22;8858;52.308;20.994;2024-02-26T13:42:41;17.10;99.90
17483;DHT22;8858;52.308;20.994;2024-02-26T13:45:10;17.10;99.90
17483;DHT22;8858;52.308;20.994;2024-02-26T13:47:39;17.00;99.90
17483;DHT22;8858;52.308;20.994;2024-02-26T13:50:08;17.00;99.90
17483;DHT22;8858;52.308;20.994;2024-02-26T13:52:37;17.00;99.90
17483;DHT22;8858;52.308;20.994;2024-02-26T13:55:06;17.00;99.90
17483;DHT22;8858;52.308;20.994;2024-02-26T13:57:36;16.90;99.90
17483;DHT22;8858;52.308;20.994;2024-02-26T14:00:09;16.90;99.90
17483;DHT22;8858;52.308;20.994;2024-02-26T14:02:39;16.80;99.90
17483;DHT22;8858;52.308;20.994;2024-02-26T14:05:11;16.80;99.90
17483;DHT22;8858;52.308;20.994;2024-02-26T14:07:40;16.70;99.90
17483;DHT22;8858;52.308;20.994;2024-02-26T14:10:09;16.60;99.90
17483;DHT22;8858;52.308;20.994;2024-02-26T14:12:39;16.50;99.90
17483;DHT22;8858;52.308;20.994;2024-02-26T14:15:10;16.40;99.90
17483;DHT22;8858;52.308;20.994;2024-02-26T14:17:39;16.30;99.90
17483;DHT22;8858;52.308;20.994;2024-02-26T14:20:08;16.30;99.90
17483;DHT22;8858;52.308;20.994;2024-02-26T14:22:36;16.20;99.90
17483;DHT22;8858;52.308;20.994;2024-02-26T14:25:05;16.10;99.90
17483;DHT22;8858;52.308;20.994;2024-02-26T14:27:36;16.00;99.90
17483;DHT22;8858;52.308;20.994;2024-02-26T14:30:11;16.00;99.90
17483;DHT22;8858;52.308;20.994;2024-02-26T14:32:39;15.90;99.90
17483;DHT22;8858;52.308;20.994;2024-02-26T14:35:08;15.80;99.90
17483;DHT22;8858;52.308;20.994;2024-02-26T14:37:44;15.80;99.90
17483;DHT22;8858;52.308;20.994;2024-02-26T14:40:15;15.80;99.90
17483;DHT22;8858;52.308;20.994;2024-02-26T14:42:46;15.70;99.90
17483;DHT22;8858;52.308;20.994;2024-02-26T14:45:17;15.70;99.90
17483;DHT22;8858;52.308;20.994;2024-02-26T14:47:46;15.60;99.90
17483;DHT22;8858;52.308;20.994;2024-02-26T14:50:16;15.60;99.90
17483;DHT22;8858;52.308;20.994;2024-02-26T14:52:44;15.60;99.90
17483;DHT22;8858;52.308;20.994;2024-02-26T14:55:15;15.50;99.90
17483;DHT22;8858;52.308;20.994;2024-02-26T14:57:45;15.50;99.90
17483;DHT22;8858;52.308;20.994;2024-02-26T15:00:14;15.50;99.90
17483;DHT22;8858;52.308;20.994;2024-02-26T15:02:45;15.50;99.90
17483;DHT22;8858;52.308;20.994;2024-02-26T15:05:14;15.40;99.90
17483;DHT22;8858;52.308;20.994;2024-02-26T15:07:44;15.30;99.90
17483;DHT22;8858;52.308;20.994;2024-02-26T15:10:12;15.30;99.90
17483;DHT22;8858;52.308;20.994;2024-02-26T15:12:41;15.20;99.90
17483;DHT22;8858;52.308;20.994;2024-02-26T15:15:13;15.20;99.90
17483;DHT22;8858;52.308;20.994;2024-02-26T15:17:42;15.20;99.90
17483;DHT22;8858;52.308;20.994;2024-02-26T15:20:12;15.10;99.90
17483;DHT22;8858;52.308;20.994;2024-02-26T15:22:42;15.10;99.90
17483;DHT22;8858;52.308;20.994;2024-02-26T15:25:10;15.00;99.90
17483;DHT22;8858;52.308;20.994;2024-02-26T15:27:43;15.00;99.90
17483;DHT22;8858;52.308;20.994;2024-02-26T15:30:13;15.00;99.90
17483;DHT22;8858;52.308;20.994;2024-02-26T15:32:41;14.90;99.90
17483;DHT22;8858;52.308;20.994;2024-02-26T15:35:12;14.80;99.90
17483;DHT22;8858;52.308;20.994;2024-02-26T15:37:40;14.80;99.90
17483;DHT22;8858;52.308;20.994;2024-02-26T15:40:11;14.70;99.90
17483;DHT22;8858;52.308;20.994;2024-02-26T15:42:39;14.60;99.90
17483;DHT22;8858;52.308;20.994;2024-02-26T15:45:08;14.60;99.90
17483;DHT22;8858;52.308;20.994;2024-02-26T15:47:36;14.50;99.90
17483;DHT22;8858;52.308;20.994;2024-02-26T15:50:08;14.50;99.90
17483;DHT22;8858;52.308;20.994;2024-02-26T15:52:43;14.50;99.90
17483;DHT22;8858;52.308;20.994;2024-02-26T15:55:12;14.40;99.90